Time;durP1;ratioP1;P1;durP2;ratioP2;P2;SDS_P1;SDS_P2;PMS_P1;PMS_P2;Temp;Humidity;BMP_temperature;BMP_pressure;BME280_temperature;BME280_humidity;BME280_pressure;Samples;Min_cycle;Max_cycle;Signal;HPM_P1;HPM_P2
2023/07/24 00:00:28;;;;;;;4.97;3.72;;;18.70;99.90;;;;;;5031981;28;20434;-72
2023/07/24 00:02:55;;;;;;;4.82;3.35;;;18.70;99.90;;;;;;5029776;28;20042;-75
2023/07/24 00:05:21;;;;;;;6.53;3.88;;;18.60;99.90;;;;;;5034604;28;20044;-72
2023/07/24 00:07:48;;;;;;;5.78;3.97;;;18.70;99.90;;;;;;5035982;28;20048;-72
2023/07/24 00:10:14;;;;;;;6.70;4.40;;;18.80;99.90;;;;;;5034690;28;20824;-72
2023/07/24 00:12:40;;;;;;;6.88;4.57;;;18.80;99.90;;;;;;5038560;28;20379;-73
2023/07/24 00:15:07;;;;;;;5.22;3.80;;;18.80;99.90;;;;;;5038356;28;20056;-71
2023/07/24 00:17:33;;;;;;;6.80;3.70;;;18.80;99.90;;;;;;5032114;28;20045;-71
2023/07/24 00:19:59;;;;;;;7.50;3.53;;;18.80;99.90;;;;;;5034325;28;20056;-72
2023/07/24 00:22:25;;;;;;;5.88;3.45;;;18.90;99.90;;;;;;5035325;28;20037;-73
2023/07/24 00:24:51;;;;;;;6.05;4.20;;;19.00;99.90;;;;;;5037465;28;20028;-76
2023/07/24 00:27:17;;;;;;;6.45;3.75;;;19.20;93.80;;;;;;5033829;28;20037;-71
2023/07/24 00:29:45;;;;;;;6.07;4.15;;;19.20;92.60;;;;;;5033865;28;20064;-71
2023/07/24 00:32:11;;;;;;;4.78;3.30;;;19.20;91.30;;;;;;5045590;28;20273;-72
2023/07/24 00:34:38;;;;;;;7.78;4.43;;;19.10;97.90;;;;;;5035031;28;20033;-72
2023/07/24 00:37:04;;;;;;;5.82;3.72;;;19.00;99.90;;;;;;5035713;28;20034;-73
2023/07/24 00:39:30;;;;;;;5.50;3.75;;;18.90;99.90;;;;;;5054710;28;20045;-71
2023/07/24 00:41:57;;;;;;;8.73;4.78;;;18.80;99.90;;;;;;5037687;28;20034;-71
2023/07/24 00:44:23;;;;;;;5.25;4.10;;;18.80;99.90;;;;;;5032400;28;20042;-71
2023/07/24 00:46:50;;;;;;;6.15;4.85;;;18.70;99.90;;;;;;5028838;28;20041;-72
2023/07/24 00:49:17;;;;;;;5.88;4.20;;;18.70;99.90;;;;;;5052090;28;20041;-71
2023/07/24 00:51:44;;;;;;;6.43;4.38;;;18.70;99.90;;;;;;5032498;28;20041;-72
2023/07/24 00:54:13;;;;;;;7.28;4.75;;;18.80;99.90;;;;;;5037106;28;20478;-72
2023/07/24 00:56:39;;;;;;;6.10;3.85;;;18.80;99.90;;;;;;5036153;28;20043;-71
2023/07/24 00:59:06;;;;;;;6.30;4.90;;;18.80;99.90;;;;;;5028758;28;20120;-73
2023/07/24 01:01:32;;;;;;;6.43;4.25;;;18.80;99.90;;;;;;5031209;28;20462;-71
2023/07/24 01:03:58;;;;;;;6.10;4.95;;;18.70;99.90;;;;;;5033790;28;20037;-73
2023/07/24 01:06:25;;;;;;;9.02;5.22;;;18.80;99.90;;;;;;5034758;28;20046;-71
2023/07/24 01:08:51;;;;;;;7.65;4.88;;;18.80;99.90;;;;;;5038501;28;20060;-71
2023/07/24 01:11:35;;;;;;;5.05;3.95;;;18.70;99.90;;;;;;5035043;28;20525;-72
2023/07/24 01:14:13;;;;;;;7.32;4.47;;;18.70;99.90;;;;;;5035530;28;20033;-72
2023/07/24 01:16:43;;;;;;;6.45;4.45;;;18.60;99.90;;;;;;5034532;28;20053;-72
2023/07/24 01:19:37;;;;;;;6.80;4.68;;;18.60;99.90;;;;;;5033788;28;20055;-72
2023/07/24 01:22:20;;;;;;;8.77;5.13;;;18.60;99.90;;;;;;5032983;28;20058;-72
2023/07/24 01:25:11;;;;;;;6.90;4.45;;;18.60;99.90;;;;;;5034072;28;20045;-72
2023/07/24 01:27:43;;;;;;;;;;;18.50;99.90;;;;;;5033458;28;20053;-71
2023/07/24 01:30:11;;;;;;;6.57;4.45;;;18.50;99.90;;;;;;5034025;28;19920;-71
2023/07/24 01:32:38;;;;;;;6.45;4.65;;;18.50;99.90;;;;;;5036086;28;20030;-72
2023/07/24 01:35:05;;;;;;;6.68;4.80;;;18.40;99.90;;;;;;5033878;28;20041;-72
2023/07/24 01:37:32;;;;;;;9.35;5.05;;;18.50;99.90;;;;;;5033228;28;20025;-71
2023/07/24 01:40:00;;;;;;;6.40;3.78;;;18.40;99.90;;;;;;5034683;28;20212;-72
2023/07/24 01:42:26;;;;;;;6.95;5.10;;;18.40;99.90;;;;;;5047865;28;20494;-71
2023/07/24 01:44:54;;;;;;;6.88;4.72;;;18.50;99.90;;;;;;5035253;28;20029;-72
2023/07/24 01:47:21;;;;;;;6.47;4.43;;;18.40;99.90;;;;;;5046506;28;20041;-71
2023/07/24 01:49:48;;;;;;;7.32;4.63;;;18.50;99.90;;;;;;5052079;28;20068;-72
2023/07/24 01:52:17;;;;;;;7.18;4.72;;;18.40;99.90;;;;;;5033868;28;20406;-72
2023/07/24 01:54:43;;;;;;;8.45;5.43;;;18.40;99.90;;;;;;5047338;28;20044;-73
2023/07/24 01:57:09;;;;;;;8.52;4.97;;;18.50;99.90;;;;;;5031234;28;20459;-72
2023/07/24 01:59:35;;;;;;;9.70;5.28;;;18.50;99.90;;;;;;5034346;28;20048;-73
2023/07/24 02:02:02;;;;;;;9.85;5.35;;;18.60;99.90;;;;;;5033574;28;20398;-73
2023/07/24 02:04:28;;;;;;;7.72;4.75;;;18.60;99.90;;;;;;5038141;28;20036;-72
2023/07/24 02:06:54;;;;;;;8.27;5.55;;;18.60;99.90;;;;;;5036590;28;20040;-72
2023/07/24 02:09:20;;;;;;;7.35;4.70;;;18.50;99.90;;;;;;5037498;28;20038;-71
2023/07/24 02:11:46;;;;;;;8.88;5.50;;;18.50;99.90;;;;;;5033368;28;20037;-71
2023/07/24 02:14:14;;;;;;;7.82;4.97;;;18.60;99.90;;;;;;5049840;28;20057;-73
2023/07/24 02:16:40;;;;;;;7.68;5.35;;;18.50;99.90;;;;;;5036127;28;20033;-72
2023/07/24 02:19:06;;;;;;;8.52;4.88;;;18.50;99.90;;;;;;5036146;28;20522;-72
2023/07/24 02:21:32;;;;;;;7.68;5.55;;;18.50;99.90;;;;;;5036246;28;20068;-72
2023/07/24 02:23:59;;;;;;;6.45;5.00;;;18.50;99.90;;;;;;5029930;28;20046;-75
2023/07/24 02:26:25;;;;;;;7.43;4.97;;;18.50;99.90;;;;;;5031928;28;20033;-71
2023/07/24 02:28:51;;;;;;;8.38;5.32;;;18.40;99.90;;;;;;5033243;28;20491;-72
2023/07/24 02:31:17;;;;;;;7.30;5.13;;;18.40;99.90;;;;;;5034064;28;20029;-73
2023/07/24 02:33:43;;;;;;;8.55;5.68;;;18.30;99.90;;;;;;5034155;28;20029;-72
2023/07/24 02:36:09;;;;;;;9.25;5.60;;;18.30;99.90;;;;;;5030302;28;20040;-72
2023/07/24 02:38:36;;;;;;;6.75;5.05;;;18.30;99.90;;;;;;5033333;28;20044;-71
2023/07/24 02:41:03;;;;;;;7.95;5.53;;;18.30;99.90;;;;;;5036463;28;20414;-73
2023/07/24 02:43:29;;;;;;;7.63;5.75;;;18.20;99.90;;;;;;5033415;28;20257;-76
2023/07/24 02:45:55;;;;;;;7.35;5.40;;;18.20;99.90;;;;;;5031971;28;20025;-72
2023/07/24 02:48:23;;;;;;;7.63;5.43;;;18.20;99.90;;;;;;5036342;28;20045;-73
2023/07/24 02:50:49;;;;;;;8.43;5.80;;;18.20;99.90;;;;;;5036694;28;20033;-72
2023/07/24 02:53:15;;;;;;;8.57;6.05;;;18.20;99.90;;;;;;5030615;28;20467;-72
2023/07/24 02:55:44;;;;;;;8.63;5.72;;;18.30;99.90;;;;;;5029060;28;20052;-72
2023/07/24 02:58:12;;;;;;;9.50;7.07;;;18.30;99.90;;;;;;5034937;28;20386;-72
2023/07/24 03:00:38;;;;;;;9.07;5.97;;;18.40;99.90;;;;;;5048684;28;20600;-72
2023/07/24 03:03:04;;;;;;;10.30;6.38;;;18.40;99.90;;;;;;5033455;28;20025;-72
2023/07/24 03:05:31;;;;;;;8.32;5.85;;;18.40;99.90;;;;;;5034126;28;20056;-73
2023/07/24 03:07:57;;;;;;;9.38;6.43;;;18.50;99.90;;;;;;5033329;28;20025;-71
2023/07/24 03:10:23;;;;;;;8.23;6.13;;;18.50;99.90;;;;;;5049920;28;20409;-72
2023/07/24 03:12:49;;;;;;;9.05;6.63;;;18.60;99.90;;;;;;5034421;28;20037;-72
2023/07/24 03:15:16;;;;;;;9.18;6.75;;;18.60;99.90;;;;;;5029391;28;20045;-72
2023/07/24 03:17:42;;;;;;;8.18;5.97;;;18.60;99.90;;;;;;5033697;28;20447;-72
2023/07/24 03:20:16;;;;;;;10.25;6.55;;;18.60;99.90;;;;;;5032732;28;20033;-72
2023/07/24 03:22:43;;;;;;;8.50;5.60;;;18.60;99.90;;;;;;5033525;28;20362;-72
2023/07/24 03:25:09;;;;;;;10.23;6.43;;;18.70;99.90;;;;;;5032438;28;20052;-72
2023/07/24 03:27:35;;;;;;;9.82;6.65;;;18.70;99.90;;;;;;5032639;28;20048;-72
2023/07/24 03:30:03;;;;;;;9.10;6.30;;;18.70;99.90;;;;;;5031211;28;20041;-75
2023/07/24 03:32:30;;;;;;;9.27;5.68;;;18.70;99.90;;;;;;5033467;28;20044;-73
2023/07/24 03:34:56;;;;;;;10.30;6.65;;;18.70;99.90;;;;;;5033789;28;20050;-72
2023/07/24 03:37:23;;;;;;;9.77;6.55;;;18.70;99.90;;;;;;5029790;28;20314;-71
2023/07/24 03:39:49;;;;;;;9.20;6.75;;;18.70;99.90;;;;;;5033186;28;20052;-72
2023/07/24 03:42:26;;;;;;;9.43;7.32;;;18.60;99.90;;;;;;5038579;28;20064;-72
2023/07/24 03:44:53;;;;;;;10.07;6.57;;;18.60;99.90;;;;;;5040924;28;20378;-71
2023/07/24 03:47:19;;;;;;;8.57;6.57;;;18.70;99.90;;;;;;5033753;28;20398;-72
2023/07/24 03:49:45;;;;;;;9.52;6.50;;;18.80;99.90;;;;;;5039903;28;20029;-71
2023/07/24 03:52:11;;;;;;;9.90;6.72;;;18.80;99.90;;;;;;5034995;28;20033;-72
2023/07/24 03:54:38;;;;;;;8.45;6.43;;;18.90;99.90;;;;;;5039068;28;20033;-72
2023/07/24 03:57:04;;;;;;;9.05;6.40;;;19.00;99.90;;;;;;5028578;28;20392;-75
2023/07/24 03:59:31;;;;;;;9.73;6.70;;;19.00;99.90;;;;;;5034978;28;20052;-73
2023/07/24 04:01:58;;;;;;;8.98;6.13;;;19.00;99.90;;;;;;5025467;28;20117;-72
2023/07/24 04:04:24;;;;;;;10.00;6.72;;;19.00;99.90;;;;;;5027352;28;20057;-71
2023/07/24 04:06:50;;;;;;;8.85;6.65;;;19.00;99.90;;;;;;5031888;28;20033;-76
2023/07/24 04:09:16;;;;;;;11.70;6.70;;;19.00;99.90;;;;;;5032937;28;20052;-72
2023/07/24 04:11:43;;;;;;;9.75;6.50;;;19.00;99.90;;;;;;5030033;28;20033;-72
2023/07/24 04:14:10;;;;;;;9.43;6.78;;;19.10;99.90;;;;;;5038360;28;20041;-72
2023/07/24 04:16:36;;;;;;;8.52;6.30;;;19.10;99.90;;;;;;5035976;28;20033;-72
2023/07/24 04:19:03;;;;;;;9.13;6.78;;;19.20;99.90;;;;;;5034463;28;20038;-76
2023/07/24 04:21:29;;;;;;;9.43;6.55;;;19.10;99.90;;;;;;5050622;28;20053;-73
2023/07/24 04:23:55;;;;;;;9.93;6.35;;;19.20;99.90;;;;;;5036084;28;20489;-73
2023/07/24 04:26:21;;;;;;;9.07;6.68;;;19.10;99.90;;;;;;5037248;28;20033;-73
2023/07/24 04:28:47;;;;;;;9.85;6.82;;;19.30;99.90;;;;;;5032288;28;20037;-73
2023/07/24 04:31:13;;;;;;;9.18;6.18;;;19.30;99.90;;;;;;5033605;28;20053;-74
2023/07/24 04:33:39;;;;;;;13.25;6.78;;;19.40;99.90;;;;;;5032833;28;20045;-74
2023/07/24 04:36:06;;;;;;;9.00;6.13;;;19.40;99.90;;;;;;5036973;28;20030;-78
2023/07/24 04:38:32;;;;;;;10.13;6.28;;;19.50;99.90;;;;;;5037413;28;20389;-72
2023/07/24 04:41:01;;;;;;;8.70;6.10;;;19.60;99.90;;;;;;5038388;28;20417;-74
2023/07/24 04:43:27;;;;;;;9.68;7.00;;;19.70;99.90;;;;;;5034824;28;20076;-74
2023/07/24 04:45:53;;;;;;;9.23;6.32;;;19.80;99.90;;;;;;5033448;28;20060;-74
2023/07/24 04:48:19;;;;;;;10.77;6.97;;;19.90;99.90;;;;;;5033763;28;20053;-73
2023/07/24 04:50:45;;;;;;;10.38;6.38;;;19.90;99.90;;;;;;5038515;28;20061;-72
2023/07/24 04:53:11;;;;;;;8.75;5.72;;;19.90;99.90;;;;;;5035163;28;20034;-73
2023/07/24 04:55:38;;;;;;;10.63;6.95;;;19.90;99.90;;;;;;5035060;28;20038;-73
2023/07/24 04:58:04;;;;;;;10.40;6.38;;;20.00;99.90;;;;;;5033449;28;20037;-77
2023/07/24 05:00:30;;;;;;;10.93;6.65;;;20.00;99.90;;;;;;5030338;28;20064;-73
2023/07/24 05:02:56;;;;;;;10.77;6.60;;;20.00;99.90;;;;;;5030978;28;20060;-73
2023/07/24 05:05:22;;;;;;;10.18;6.78;;;20.00;99.90;;;;;;5026889;28;20042;-73
2023/07/24 05:07:48;;;;;;;9.10;5.80;;;20.10;99.90;;;;;;5029583;28;20036;-74
2023/07/24 05:10:15;;;;;;;9.50;7.07;;;20.20;99.90;;;;;;5034718;28;20041;-73
2023/07/24 05:12:42;;;;;;;9.25;6.70;;;20.30;99.90;;;;;;5033792;28;20037;-72
2023/07/24 05:15:09;;;;;;;9.52;6.68;;;20.30;99.90;;;;;;5036314;28;20032;-73
2023/07/24 05:17:35;;;;;;;9.50;7.22;;;20.40;99.90;;;;;;5033909;28;20060;-72
2023/07/24 05:20:01;;;;;;;10.93;7.32;;;20.50;99.90;;;;;;5035101;28;20037;-73
2023/07/24 05:22:27;;;;;;;8.95;6.85;;;20.50;99.90;;;;;;5039805;28;20033;-73
2023/07/24 05:24:53;;;;;;;11.23;7.50;;;20.60;99.90;;;;;;5037937;28;20026;-74
2023/07/24 05:27:19;;;;;;;9.52;6.72;;;20.60;99.90;;;;;;5046011;28;20045;-73
2023/07/24 05:29:45;;;;;;;10.13;6.57;;;20.60;98.30;;;;;;5035473;28;20125;-73
2023/07/24 05:32:11;;;;;;;9.20;7.00;;;20.60;99.90;;;;;;5037976;28;20120;-74
2023/07/24 05:34:37;;;;;;;8.35;6.18;;;20.70;95.80;;;;;;5033922;28;20029;-73
2023/07/24 05:37:05;;;;;;;9.75;6.43;;;20.70;99.40;;;;;;5036365;28;20236;-77
2023/07/24 05:39:31;;;;;;;9.23;6.60;;;20.80;91.10;;;;;;5037711;28;20044;-73
2023/07/24 05:41:57;;;;;;;9.98;6.82;;;20.80;95.10;;;;;;5037137;28;20045;-73
2023/07/24 05:44:23;;;;;;;9.15;6.60;;;20.90;90.50;;;;;;5037730;28;20041;-72
2023/07/24 05:46:50;;;;;;;9.30;6.60;;;21.00;92.60;;;;;;5035671;28;20033;-72
2023/07/24 05:49:16;;;;;;;9.82;6.47;;;21.00;84.70;;;;;;5031820;28;20040;-71
2023/07/24 05:51:42;;;;;;;10.32;6.72;;;21.10;62.80;;;;;;5034045;28;20041;-75
2023/07/24 05:54:08;;;;;;;9.35;7.18;;;21.10;58.10;;;;;;5033917;28;20037;-78
2023/07/24 05:56:34;;;;;;;10.32;7.28;;;21.00;56.60;;;;;;5036095;28;20028;-73
2023/07/24 05:59:00;;;;;;;12.98;6.45;;;21.10;53.70;;;;;;5034167;28;20030;-73
2023/07/24 06:01:26;;;;;;;8.82;6.15;;;21.10;53.60;;;;;;5027166;28;20269;-74
2023/07/24 06:03:52;;;;;;;9.63;6.72;;;21.10;60.00;;;;;;5031891;28;20056;-73
2023/07/24 06:06:19;;;;;;;11.98;6.93;;;21.10;60.40;;;;;;5032885;28;20041;-73
2023/07/24 06:08:47;;;;;;;10.52;6.82;;;21.20;82.70;;;;;;5029936;28;20136;-73
2023/07/24 06:11:13;;;;;;;11.00;6.88;;;21.20;63.90;;;;;;5031232;28;20045;-73
2023/07/24 06:13:39;;;;;;;9.18;6.45;;;21.30;54.90;;;;;;5035205;28;20036;-74
2023/07/24 06:16:07;;;;;;;8.73;6.43;;;21.30;57.80;;;;;;5036888;28;20028;-78
2023/07/24 06:18:34;;;;;;;9.45;6.72;;;21.40;46.00;;;;;;5032821;28;20032;-72
2023/07/24 06:21:00;;;;;;;9.18;6.97;;;21.50;48.30;;;;;;5035003;28;20045;-72
2023/07/24 06:23:26;;;;;;;9.35;6.25;;;21.40;57.10;;;;;;5035659;28;20041;-74
2023/07/24 06:25:52;;;;;;;9.95;7.50;;;21.50;64.20;;;;;;5028988;28;20454;-74
2023/07/24 06:28:19;;;;;;;11.80;6.95;;;21.50;65.00;;;;;;5031105;28;20028;-74
2023/07/24 06:30:45;;;;;;;11.52;7.63;;;21.50;76.70;;;;;;5034645;28;20390;-78
2023/07/24 06:33:11;;;;;;;9.70;7.50;;;21.60;63.10;;;;;;5035542;28;20042;-77
2023/07/24 06:35:37;;;;;;;13.10;7.35;;;21.60;60.70;;;;;;5047678;28;20044;-77
2023/07/24 06:38:04;;;;;;;10.63;6.82;;;21.60;63.90;;;;;;5032035;28;20412;-77
2023/07/24 06:40:30;;;;;;;10.45;6.97;;;21.70;59.40;;;;;;5031095;28;20049;-78
2023/07/24 06:42:56;;;;;;;12.10;6.75;;;21.90;61.00;;;;;;5033591;28;20050;-77
2023/07/24 06:45:22;;;;;;;9.70;6.40;;;21.90;55.40;;;;;;5053649;28;20044;-77
2023/07/24 06:47:48;;;;;;;10.43;7.45;;;21.80;44.80;;;;;;5036906;28;20036;-80
2023/07/24 06:50:14;;;;;;;11.48;7.00;;;21.80;60.50;;;;;;5039530;28;20041;-76
2023/07/24 06:52:41;;;;;;;9.48;6.75;;;21.80;83.80;;;;;;5036227;28;20084;-76
2023/07/24 06:55:07;;;;;;;9.63;6.60;;;22.00;58.40;;;;;;5032985;28;20052;-82
2023/07/24 06:57:33;;;;;;;8.85;6.20;;;22.30;37.30;;;;;;5035136;28;20025;-76
2023/07/24 07:00:00;;;;;;;9.50;6.88;;;22.50;12.50;;;;;;5035836;28;20050;-76
2023/07/24 07:02:28;;;;;;;9.30;7.43;;;22.60;7.70;;;;;;5036038;28;20041;-76
2023/07/24 07:04:54;;;;;;;10.82;7.15;;;23.00;1.00;;;;;;5034488;28;20383;-77
2023/07/24 07:07:20;;;;;;;9.50;7.03;;;23.50;1.00;;;;;;5032011;28;20462;-76
2023/07/24 07:09:46;;;;;;;11.05;6.68;;;23.70;1.00;;;;;;5030529;28;20047;-83
2023/07/24 07:12:12;;;;;;;11.18;6.68;;;23.70;1.00;;;;;;5030474;28;20038;-76
2023/07/24 07:14:38;;;;;;;9.18;7.32;;;23.50;1.00;;;;;;5045922;28;20049;-76
2023/07/24 07:17:04;;;;;;;11.90;7.55;;;23.40;1.00;;;;;;5051160;28;20037;-76
2023/07/24 07:19:30;;;;;;;9.88;6.50;;;23.30;1.00;;;;;;5028076;28;20060;-77
2023/07/24 07:21:57;;;;;;;11.85;7.03;;;23.50;1.00;;;;;;5034381;28;20379;-75
2023/07/24 07:24:23;;;;;;;13.98;7.53;;;23.90;1.00;;;;;;5034510;28;20033;-75
2023/07/24 07:26:49;;;;;;;10.20;6.63;;;24.00;1.00;;;;;;5034998;28;20037;-77
2023/07/24 07:29:15;;;;;;;10.65;7.75;;;24.30;1.00;;;;;;5035807;28;20040;-76
2023/07/24 07:31:41;;;;;;;9.60;6.68;;;24.50;1.00;;;;;;5035805;28;20036;-76
2023/07/24 07:34:10;;;;;;;12.05;7.88;;;24.40;1.00;;;;;;5048229;28;20033;-76
2023/07/24 07:36:36;;;;;;;11.13;7.35;;;24.20;1.00;;;;;;5032611;28;20045;-77
2023/07/24 07:39:03;;;;;;;9.38;6.95;;;24.20;1.00;;;;;;5032678;28;20037;-77
2023/07/24 07:41:29;;;;;;;10.52;7.25;;;24.30;1.00;;;;;;5033680;28;20209;-77
2023/07/24 07:43:55;;;;;;;8.98;7.15;;;24.10;1.00;;;;;;5050083;28;20045;-77
2023/07/24 07:46:21;;;;;;;9.63;7.40;;;23.70;1.00;;;;;;5033885;28;20029;-77
2023/07/24 07:48:48;;;;;;;8.13;6.32;;;23.80;1.00;;;;;;5035648;28;20053;-77
2023/07/24 07:51:15;;;;;;;8.98;7.00;;;23.90;1.00;;;;;;5032667;28;20052;-75
2023/07/24 07:53:41;;;;;;;9.95;6.78;;;23.90;1.00;;;;;;5033921;28;20033;-76
2023/07/24 07:56:10;;;;;;;8.75;7.22;;;24.10;1.00;;;;;;5033209;28;20423;-75
2023/07/24 07:58:37;;;;;;;11.75;6.28;;;24.00;1.00;;;;;;5026786;28;20030;-76
2023/07/24 08:01:05;;;;;;;11.27;7.55;;;23.90;1.00;;;;;;5030047;28;20401;-77
2023/07/24 08:03:31;;;;;;;11.57;6.65;;;23.60;1.00;;;;;;5030128;28;20033;-75
2023/07/24 08:05:58;;;;;;;10.82;7.13;;;23.50;1.00;;;;;;5025683;28;20038;-75
2023/07/24 08:08:24;;;;;;;10.05;6.72;;;23.50;1.00;;;;;;5031367;28;20439;-76
2023/07/24 08:10:50;;;;;;;11.68;7.32;;;23.40;1.00;;;;;;5027075;28;20044;-76
2023/07/24 08:13:16;;;;;;;11.40;7.10;;;23.30;1.00;;;;;;5048154;28;20044;-80
2023/07/24 08:15:42;;;;;;;12.10;7.68;;;23.20;1.60;;;;;;5031124;28;20033;-80
2023/07/24 08:18:08;;;;;;;9.20;7.28;;;23.20;8.90;;;;;;5032261;28;20036;-76
2023/07/24 08:20:36;;;;;;;10.68;7.00;;;23.20;18.90;;;;;;5031621;28;20041;-76
2023/07/24 08:23:02;;;;;;;9.13;5.85;;;23.20;10.40;;;;;;5032497;28;20034;-77
2023/07/24 08:25:28;;;;;;;11.00;6.93;;;23.30;22.50;;;;;;5033910;28;20037;-77
2023/07/24 08:27:54;;;;;;;10.07;7.30;;;23.30;20.40;;;;;;5033674;28;20029;-76
2023/07/24 08:30:20;;;;;;;8.20;6.55;;;23.20;15.00;;;;;;5037159;28;20458;-77
2023/07/24 08:32:46;;;;;;;8.95;6.82;;;23.20;28.60;;;;;;5038015;28;20029;-76
2023/07/24 08:35:13;;;;;;;10.98;6.90;;;23.30;16.90;;;;;;5038102;28;20048;-77
2023/07/24 08:37:44;;;;;;;9.90;7.20;;;23.50;5.40;;;;;;5041712;28;20038;-75
2023/07/24 08:40:11;;;;;;;11.50;6.55;;;23.80;1.00;;;;;;5044803;28;20470;-77
2023/07/24 08:42:43;;;;;;;11.00;7.18;;;24.10;1.00;;;;;;5047921;28;20042;-75
2023/07/24 08:45:13;;;;;;;10.55;6.60;;;24.10;1.00;;;;;;5025060;28;20037;-76
2023/07/24 08:47:43;;;;;;;9.30;6.25;;;24.30;1.00;;;;;;5030424;28;20038;-76
2023/07/24 08:50:11;;;;;;;9.25;6.63;;;24.50;1.00;;;;;;5040410;28;20033;-76
2023/07/24 08:52:42;;;;;;;6.88;6.18;;;24.50;1.00;;;;;;5037556;28;20048;-75
2023/07/24 08:55:08;;;;;;;7.32;6.00;;;24.60;1.00;;;;;;5036690;28;20032;-76
2023/07/24 08:57:35;;;;;;;7.20;5.53;;;24.80;1.00;;;;;;5027365;28;20022;-77
2023/07/24 09:00:04;;;;;;;9.75;6.90;;;24.90;1.00;;;;;;5038223;28;20042;-74
2023/07/24 09:02:32;;;;;;;9.30;7.00;;;24.90;1.00;;;;;;5033894;28;20037;-75
2023/07/24 09:04:58;;;;;;;9.18;5.78;;;24.80;1.00;;;;;;5033148;28;20033;-75
2023/07/24 09:07:24;;;;;;;10.32;6.20;;;24.70;1.00;;;;;;5025255;28;20045;-76
2023/07/24 09:09:51;;;;;;;11.60;6.57;;;24.70;1.00;;;;;;5030400;28;20049;-77
2023/07/24 09:12:18;;;;;;;9.15;6.38;;;24.70;1.00;;;;;;5040866;28;20042;-75
2023/07/24 09:14:45;;;;;;;13.05;6.07;;;24.70;1.00;;;;;;5045389;28;20045;-74
2023/07/24 09:17:12;;;;;;;8.70;6.55;;;24.70;1.00;;;;;;5042612;28;20481;-76
2023/07/24 09:19:38;;;;;;;11.88;6.78;;;24.80;1.00;;;;;;5037772;28;20026;-77
2023/07/24 09:22:22;;;;;;;10.18;6.07;;;24.90;1.00;;;;;;5043399;28;20056;-74
2023/07/24 09:24:57;;;;;;;7.97;6.75;;;24.70;1.00;;;;;;5036745;28;20044;-76
2023/07/24 09:27:28;;;;;;;9.77;6.50;;;24.60;1.00;;;;;;5036025;28;20040;-76
2023/07/24 09:29:56;;;;;;;8.77;5.90;;;24.20;1.00;;;;;;5030298;28;20041;-76
2023/07/24 09:32:24;;;;;;;7.60;5.75;;;23.90;1.00;;;;;;5041089;28;20100;-77
2023/07/24 09:34:51;;;;;;;13.20;6.35;;;23.80;1.00;;;;;;5037137;28;20390;-78
2023/07/24 09:37:29;;;;;;;8.32;6.38;;;23.70;1.00;;;;;;5031495;28;20034;-75
2023/07/24 09:39:55;;;;;;;9.20;6.88;;;23.90;1.00;;;;;;5036369;28;20038;-77
2023/07/24 09:42:29;;;;;;;10.07;6.68;;;23.90;1.00;;;;;;5034191;28;20037;-76
2023/07/24 09:44:55;;;;;;;10.15;6.68;;;23.90;1.00;;;;;;5038953;28;20029;-76
2023/07/24 09:47:21;;;;;;;11.70;6.80;;;23.70;1.00;;;;;;5032333;28;20034;-78
2023/07/24 09:49:47;;;;;;;11.40;6.82;;;23.60;3.30;;;;;;5033942;28;20052;-76
2023/07/24 09:52:16;;;;;;;9.73;6.97;;;23.50;11.30;;;;;;5038911;28;20470;-76
2023/07/24 09:54:59;;;;;;;9.95;6.85;;;23.50;23.20;;;;;;5050000;28;20045;-76
2023/07/24 09:57:27;;;;;;;8.55;6.35;;;23.40;25.30;;;;;;5035761;28;20061;-77
2023/07/24 09:59:56;;;;;;;9.73;6.25;;;23.50;24.00;;;;;;5038443;28;20063;-77
2023/07/24 10:02:23;;;;;;;9.90;6.43;;;23.50;19.00;;;;;;5036542;28;20053;-77
2023/07/24 10:04:49;;;;;;;10.15;6.88;;;23.50;25.30;;;;;;5039564;28;20041;-75
2023/07/24 10:07:21;;;;;;;7.97;6.35;;;23.60;35.50;;;;;;5038635;28;20029;-80
2023/07/24 10:09:49;;;;;;;12.30;6.50;;;23.80;26.20;;;;;;5032892;28;20041;-76
2023/07/24 10:12:17;;;;;;;10.57;7.47;;;24.00;16.50;;;;;;5031635;28;20045;-75
2023/07/24 10:14:48;;;;;;;10.93;7.78;;;24.00;4.80;;;;;;5034890;28;20089;-78
2023/07/24 10:17:14;;;;;;;11.63;7.45;;;24.00;8.10;;;;;;5036564;28;20045;-75
2023/07/24 10:19:43;;;;;;;12.18;7.25;;;23.90;17.40;;;;;;5033893;28;20029;-75
2023/07/24 10:22:19;;;;;;;10.18;7.57;;;23.70;31.60;;;;;;5034790;28;20041;-75
2023/07/24 10:24:46;;;;;;;9.30;6.82;;;23.60;48.50;;;;;;5036575;28;20462;-76
2023/07/24 10:27:13;;;;;;;9.68;6.97;;;23.50;49.90;;;;;;5037906;28;20044;-75
2023/07/24 10:29:39;;;;;;;8.88;6.72;;;23.50;50.70;;;;;;5038073;28;20032;-76
2023/07/24 10:32:18;;;;;;;9.38;6.88;;;23.60;48.90;;;;;;5033645;28;20033;-77
2023/07/24 10:34:44;;;;;;;8.60;6.25;;;23.80;34.20;;;;;;5038773;28;20033;-76
2023/07/24 10:37:10;;;;;;;8.05;6.78;;;24.00;13.60;;;;;;5036294;28;20052;-77
2023/07/24 10:39:40;;;;;;;8.45;6.82;;;24.10;9.90;;;;;;5035043;28;20478;-77
2023/07/24 10:42:10;;;;;;;8.35;6.22;;;24.10;11.60;;;;;;5034297;28;20037;-77
2023/07/24 10:44:37;;;;;;;10.20;6.90;;;24.30;5.80;;;;;;5037562;28;20033;-75
2023/07/24 10:47:04;;;;;;;7.80;6.30;;;24.40;1.00;;;;;;5033178;28;20037;-75
2023/07/24 10:49:30;;;;;;;8.38;6.35;;;24.70;13.40;;;;;;5035240;28;20045;-77
2023/07/24 10:51:59;;;;;;;11.48;6.57;;;24.70;1.00;;;;;;5035443;28;20037;-75
2023/07/24 10:54:25;;;;;;;8.57;5.57;;;24.60;1.00;;;;;;5034709;28;20489;-75
2023/07/24 10:57:01;;;;;;;8.52;6.18;;;24.70;1.00;;;;;;5050165;28;20025;-77
2023/07/24 10:59:40;;;;;;;9.10;6.15;;;24.70;1.00;;;;;;5035473;28;20355;-76
2023/07/24 11:02:07;;;;;;;9.38;5.93;;;24.90;1.00;;;;;;5036314;28;20053;-75
2023/07/24 11:04:33;;;;;;;9.40;5.97;;;24.70;1.00;;;;;;5034291;28;20473;-76
2023/07/24 11:07:01;;;;;;;10.95;6.22;;;24.80;1.00;;;;;;5035222;28;20362;-75
2023/07/24 11:09:37;;;;;;;9.15;6.70;;;24.90;1.00;;;;;;5030973;28;20048;-75
2023/07/24 11:12:31;;;;;;;6.57;5.85;;;24.90;1.00;;;;;;5028082;28;20043;-76
2023/07/24 11:14:58;;;;;;;8.50;5.93;;;24.70;1.00;;;;;;5030441;28;20038;-77
2023/07/24 11:17:40;;;;;;;7.38;5.80;;;24.90;1.00;;;;;;5048934;28;20041;-76
2023/07/24 11:20:11;;;;;;;7.65;5.88;;;25.10;1.00;;;;;;5031541;28;20386;-77
2023/07/24 11:22:42;;;;;;;7.93;5.78;;;25.10;1.00;;;;;;5031998;28;20037;-76
2023/07/24 11:25:10;;;;;;;8.57;5.57;;;25.30;1.00;;;;;;5037405;28;20032;-75
2023/07/24 11:27:43;;;;;;;8.82;5.65;;;25.40;1.00;;;;;;5038009;28;20046;-75
2023/07/24 11:30:11;;;;;;;7.50;6.18;;;25.50;1.00;;;;;;5034056;28;20033;-76
2023/07/24 11:32:42;;;;;;;11.13;6.22;;;25.60;1.00;;;;;;5032677;28;20025;-76
2023/07/24 11:35:09;;;;;;;8.68;5.60;;;25.80;1.00;;;;;;5041043;28;20793;-75
2023/07/24 11:37:36;;;;;;;8.50;5.55;;;25.80;1.00;;;;;;5032668;28;20025;-76
2023/07/24 11:40:09;;;;;;;9.27;6.22;;;26.00;1.00;;;;;;5028467;28;20054;-76
2023/07/24 11:42:53;;;;;;;10.48;6.22;;;25.90;1.00;;;;;;5028408;28;20048;-76
2023/07/24 11:45:20;;;;;;;7.22;6.15;;;25.60;1.00;;;;;;5036092;28;20375;-75
2023/07/24 11:47:50;;;;;;;9.00;5.55;;;25.30;1.00;;;;;;5034366;28;20385;-75
2023/07/24 11:50:17;;;;;;;10.40;5.78;;;24.90;1.00;;;;;;5033411;28;20037;-76
2023/07/24 11:52:45;;;;;;;9.05;6.30;;;24.80;1.00;;;;;;5039102;28;20041;-76
2023/07/24 11:55:13;;;;;;;8.98;5.63;;;24.80;13.80;;;;;;5033147;28;20048;-74
2023/07/24 11:57:39;;;;;;;8.15;6.43;;;24.70;43.70;;;;;;5035221;28;20041;-76
2023/07/24 12:00:17;;;;;;;7.78;5.72;;;24.70;99.90;;;;;;5035725;28;20379;-76
2023/07/24 12:02:43;;;;;;;8.65;7.35;;;24.90;99.90;;;;;;5038999;28;20049;-75
2023/07/24 12:05:10;;;;;;;7.88;6.35;;;25.30;41.60;;;;;;5037300;28;20032;-75
2023/07/24 12:07:36;;;;;;;7.40;6.70;;;25.60;1.00;;;;;;5038821;28;20040;-76
2023/07/24 12:10:04;;;;;;;12.88;6.22;;;25.90;1.00;;;;;;5037566;28;20037;-76
2023/07/24 12:12:37;;;;;;;6.97;5.65;;;26.00;1.00;;;;;;5034777;28;20037;-76
2023/07/24 12:15:04;;;;;;;7.47;5.72;;;25.60;1.00;;;;;;5034828;28;20029;-76
2023/07/24 12:17:30;;;;;;;8.68;6.40;;;25.40;1.00;;;;;;5019361;28;20033;-77
2023/07/24 12:19:56;;;;;;;9.60;6.90;;;25.10;1.00;;;;;;5031334;28;20037;-76
2023/07/24 12:22:22;;;;;;;7.13;5.78;;;25.10;1.00;;;;;;5034932;28;20037;-78
2023/07/24 12:24:49;;;;;;;10.30;5.50;;;25.00;1.00;;;;;;5048727;28;20430;-78
2023/07/24 12:27:15;;;;;;;8.13;5.90;;;24.90;1.00;;;;;;5041609;28;20037;-78
2023/07/24 12:29:41;;;;;;;8.15;5.63;;;25.00;1.00;;;;;;5034669;28;20044;-77
2023/07/24 12:32:07;;;;;;;8.27;6.40;;;25.40;1.00;;;;;;5036679;28;20041;-76
2023/07/24 12:34:33;;;;;;;9.63;5.82;;;25.80;1.00;;;;;;5034920;28;20029;-76
2023/07/24 12:36:59;;;;;;;8.80;5.65;;;25.80;1.00;;;;;;5039787;28;20029;-76
2023/07/24 12:39:25;;;;;;;6.97;5.80;;;25.40;1.00;;;;;;5034622;28;20038;-76
2023/07/24 12:41:51;;;;;;;10.80;6.05;;;25.30;1.00;;;;;;5035690;28;20065;-76
2023/07/24 12:44:17;;;;;;;10.30;5.45;;;25.20;1.00;;;;;;5034634;28;20054;-77
2023/07/24 12:46:44;;;;;;;10.02;5.88;;;25.20;1.00;;;;;;5030058;28;20041;-75
2023/07/24 12:49:10;;;;;;;9.75;6.50;;;25.20;1.00;;;;;;5037080;28;20133;-78